Time;durP1;ratioP1;P1;durP2;ratioP2;P2;SDS_P1;SDS_P2;PMS_P1;PMS_P2;Temp;Humidity;BMP_temperature;BMP_pressure;BME280_temperature;BME280_humidity;BME280_pressure;Samples;Min_cycle;Max_cycle;Signal;HPM_P1;HPM_P2
2023/04/02 00:01:18;;;;;;;11.05;10.38;;;;;;;;;;5010957;28;20112;-48
2023/04/02 00:03:43;;;;;;;11.35;10.65;;;;;;;;;;5013053;28;20029;-50
2023/04/02 00:06:29;;;;;;;10.93;10.25;;;;;;;;;;5016972;28;20402;-51
2023/04/02 00:08:58;;;;;;;11.35;10.65;;;;;;;;;;5031059;28;20048;-49
2023/04/02 00:11:48;;;;;;;10.45;9.82;;;;;;;;;;5015457;28;20040;-52
2023/04/02 00:14:20;;;;;;;10.63;10.00;;;;;;;;;;5019502;28;20049;-50
2023/04/02 00:16:46;;;;;;;10.68;10.07;;;;;;;;;;5015349;28;20045;-52
2023/04/02 00:19:17;;;;;;;10.55;9.95;;;;;;;;;;5017038;28;20044;-49
2023/04/02 00:21:44;;;;;;;;;;;;;;;;;;5016602;28;20542;-51
2023/04/02 00:24:15;;;;;;;11.68;10.98;;;;;;;;;;5014890;28;19933;-49
2023/04/02 00:26:46;;;;;;;12.43;11.73;;;;;;;;;;5015206;28;20056;-47
2023/04/02 00:29:14;;;;;;;11.43;10.63;;;;;;;;;;5014023;28;20041;-50
2023/04/02 00:31:49;;;;;;;12.25;11.55;;;;;;;;;;5020723;28;20076;-49
2023/04/02 00:34:32;;;;;;;12.07;11.38;;;;;;;;;;5016316;28;20493;-49
2023/04/02 00:36:58;;;;;;;11.48;10.77;;;;;;;;;;5017297;28;20037;-48
2023/04/02 00:39:26;;;;;;;11.77;11.07;;;;;;;;;;5014200;28;20782;-51
2023/04/02 00:42:03;;;;;;;12.38;11.68;;;;;;;;;;5017444;28;20621;-50
2023/04/02 00:44:31;;;;;;;12.65;11.85;;;;;;;;;;5012260;28;20036;-53
2023/04/02 00:47:03;;;;;;;12.35;11.65;;;;;;;;;;5013946;28;20107;-49
2023/04/02 00:49:37;;;;;;;13.50;12.70;;;;;;;;;;5014245;28;20029;-52
2023/04/02 00:52:07;;;;;;;11.70;11.00;;;;;;;;;;5013032;28;20084;-52
2023/04/02 00:54:43;;;;;;;11.90;11.20;;;;;;;;;;5014036;28;20026;-49
2023/04/02 00:57:19;;;;;;;13.18;12.38;;;;;;;;;;5013107;28;20363;-51
2023/04/02 01:00:18;;;;;;;11.63;10.93;;;;;;;;;;5013533;28;20034;-47
2023/04/02 01:03:15;;;;;;;11.77;11.07;;;;;;;;;;5014676;28;20030;-49
2023/04/02 01:06:00;;;;;;;12.45;11.75;;;;;;;;;;5014700;28;20518;-50
2023/04/02 01:08:41;;;;;;;12.93;12.13;;;;;;;;;;5012378;28;20041;-52
2023/04/02 01:11:16;;;;;;;11.73;11.02;;;;;;;;;;5009202;28;20030;-46
2023/04/02 01:14:02;;;;;;;12.95;12.15;;;;;;;;;;5013378;28;20064;-48
2023/04/02 01:16:30;;;;;;;13.35;12.55;;;;;;;;;;5013716;28;20063;-51
2023/04/02 01:19:17;;;;;;;12.90;12.10;;;;;;;;;;5013349;28;20037;-50
2023/04/02 01:21:52;;;;;;;12.38;11.68;;;;;;;;;;5011967;28;20045;-48
2023/04/02 01:24:19;;;;;;;12.30;11.60;;;;;;;;;;5010748;28;20036;-51
2023/04/02 01:26:51;;;;;;;12.30;11.57;;;;;;;;;;5014364;28;20049;-51
2023/04/02 01:29:23;;;;;;;12.05;11.35;;;;;;;;;;5013670;28;20057;-51
2023/04/02 01:31:51;;;;;;;11.57;10.88;;;;;;;;;;5011591;28;20017;-49
2023/04/02 01:34:20;;;;;;;11.88;11.18;;;;;;;;;;5015032;28;20545;-50
2023/04/02 01:36:55;;;;;;;11.85;11.15;;;;;;;;;;5013662;28;20131;-48
2023/04/02 01:39:53;;;;;;;11.73;11.02;;;;;;;;;;5013199;28;20434;-48
2023/04/02 01:42:33;;;;;;;12.88;12.10;;;;;;;;;;5014845;28;20050;-51
2023/04/02 01:45:20;;;;;;;12.77;12.02;;;;;;;;;;5013289;28;20128;-48
2023/04/02 01:47:47;;;;;;;11.68;10.98;;;;;;;;;;5011817;28;20587;-48
2023/04/02 01:50:18;;;;;;;12.00;11.30;;;;;;;;;;5011061;28;20521;-50
2023/04/02 01:52:47;;;;;;;11.70;11.00;;;;;;;;;;5014378;28;20026;-51
2023/04/02 01:55:16;;;;;;;12.25;11.55;;;;;;;;;;5013716;28;20041;-50
2023/04/02 01:57:45;;;;;;;13.07;12.27;;;;;;;;;;5013094;28;20107;-50
2023/04/02 02:00:13;;;;;;;11.98;11.18;;;;;;;;;;5013812;28;20037;-48
2023/04/02 02:02:41;;;;;;;12.25;11.52;;;;;;;;;;5010980;28;20124;-49
2023/04/02 02:05:13;;;;;;;12.40;11.70;;;;;;;;;;5013413;28;20039;-52
2023/04/02 02:07:40;;;;;;;11.50;10.80;;;;;;;;;;5011656;28;20025;-49
2023/04/02 02:10:11;;;;;;;11.93;11.23;;;;;;;;;;5012541;28;20592;-49
2023/04/02 02:12:36;;;;;;;;;;;;;;;;;;5010590;28;20048;-50
2023/04/02 02:15:02;;;;;;;11.48;10.77;;;;;;;;;;5010493;28;19916;-49
2023/04/02 02:17:33;;;;;;;12.75;11.95;;;;;;;;;;5012469;28;20038;-52
2023/04/02 02:19:59;;;;;;;;;;;;;;;;;;5020607;28;20037;-48
2023/04/02 02:22:31;;;;;;;11.73;11.02;;;;;;;;;;5012095;28;20382;-50
2023/04/02 02:25:00;;;;;;;12.50;11.80;;;;;;;;;;5013733;28;20624;-51
2023/04/02 02:27:25;;;;;;;13.07;12.27;;;;;;;;;;5010380;28;20041;-52
2023/04/02 02:29:57;;;;;;;13.02;12.18;;;;;;;;;;5010118;28;20029;-51
2023/04/02 02:32:25;;;;;;;;;;;;;;;;;;5011429;28;20025;-50
2023/04/02 02:35:01;;;;;;;11.95;11.25;;;;;;;;;;5016769;28;20050;-50
2023/04/02 02:37:36;;;;;;;12.35;11.65;;;;;;;;;;5014014;28;20038;-51
2023/04/02 02:40:07;;;;;;;12.63;11.90;;;;;;;;;;5010807;28;20502;-53
2023/04/02 02:42:38;;;;;;;12.75;11.95;;;;;;;;;;5010877;28;20426;-48
2023/04/02 02:45:13;;;;;;;12.27;11.38;;;;;;;;;;5012745;28;20033;-47
2023/04/02 02:47:42;;;;;;;12.93;12.13;;;;;;;;;;5014281;28;20095;-48
2023/04/02 02:50:17;;;;;;;13.45;12.65;;;;;;;;;;5007864;28;20088;-48
2023/04/02 02:52:49;;;;;;;12.32;11.63;;;;;;;;;;5015042;28;20030;-46
2023/04/02 02:55:17;;;;;;;13.18;12.38;;;;;;;;;;5012593;28;20041;-48
2023/04/02 02:57:49;;;;;;;12.95;12.15;;;;;;;;;;5013457;28;20053;-51
2023/04/02 03:00:18;;;;;;;13.02;12.13;;;;;;;;;;5013199;28;20026;-47
2023/04/02 03:02:43;;;;;;;13.35;12.55;;;;;;;;;;5012778;28;20063;-48
2023/04/02 03:05:16;;;;;;;12.25;11.55;;;;;;;;;;5010857;28;20053;-49
2023/04/02 03:07:42;;;;;;;11.90;11.20;;;;;;;;;;5010789;28;20534;-50
2023/04/02 03:10:16;;;;;;;13.65;12.75;;;;;;;;;;5011831;28;20837;-49
2023/04/02 03:13:08;;;;;;;12.82;12.02;;;;;;;;;;5013580;28;20033;-47
2023/04/02 03:15:40;;;;;;;11.63;10.93;;;;;;;;;;5011433;28;20037;-50
2023/04/02 03:18:36;;;;;;;12.20;11.50;;;;;;;;;;5011412;28;20060;-51
2023/04/02 03:21:12;;;;;;;13.60;12.77;;;;;;;;;;5012301;28;20495;-50
2023/04/02 03:23:44;;;;;;;11.75;11.05;;;;;;;;;;5013847;28;20064;-47
2023/04/02 03:26:28;;;;;;;13.13;12.30;;;;;;;;;;5017471;28;20029;-50
2023/04/02 03:29:15;;;;;;;12.07;11.38;;;;;;;;;;5017386;28;20041;-51
2023/04/02 03:31:45;;;;;;;11.32;10.63;;;;;;;;;;5012618;28;20049;-52
2023/04/02 03:34:22;;;;;;;13.77;12.98;;;;;;;;;;5009823;28;20042;-51
2023/04/02 03:36:55;;;;;;;12.73;11.98;;;;;;;;;;5009938;28;20037;-51
2023/04/02 03:39:54;;;;;;;12.88;12.07;;;;;;;;;;5017371;28;20127;-48
2023/04/02 03:42:25;;;;;;;12.20;11.50;;;;;;;;;;5017669;28;20053;-51
2023/04/02 03:44:55;;;;;;;11.45;10.75;;;;;;;;;;5014162;28;20117;-47
2023/04/02 03:47:40;;;;;;;12.13;11.32;;;;;;;;;;5016474;28;20125;-51
2023/04/02 03:50:10;;;;;;;12.07;11.32;;;;;;;;;;5012141;28;20598;-49
2023/04/02 03:52:37;;;;;;;12.32;11.63;;;;;;;;;;5013294;28;20064;-50
2023/04/02 03:55:18;;;;;;;12.35;11.65;;;;;;;;;;5015485;28;20107;-49
2023/04/02 03:58:17;;;;;;;12.48;11.77;;;;;;;;;;5014067;28;20037;-50
2023/04/02 04:00:59;;;;;;;11.45;10.75;;;;;;;;;;5015602;28;20539;-47
2023/04/02 04:03:30;;;;;;;12.35;11.65;;;;;;;;;;5015550;28;20064;-52
2023/04/02 04:06:00;;;;;;;12.27;11.57;;;;;;;;;;5016268;28;20041;-54
2023/04/02 04:08:33;;;;;;;12.38;11.68;;;;;;;;;;5012621;28;20071;-47
2023/04/02 04:11:08;;;;;;;12.52;11.82;;;;;;;;;;5013194;28;20454;-50
2023/04/02 04:13:47;;;;;;;13.38;11.48;;;;;;;;;;5013552;28;20408;-50
2023/04/02 04:16:40;;;;;;;12.35;11.65;;;;;;;;;;5016451;28;20044;-52
2023/04/02 04:19:23;;;;;;;12.48;11.77;;;;;;;;;;5014209;28;20037;-50
2023/04/02 04:21:52;;;;;;;12.48;11.77;;;;;;;;;;5012243;28;20033;-50
2023/04/02 04:24:24;;;;;;;12.68;11.88;;;;;;;;;;5010190;28;20052;-48
2023/04/02 04:26:56;;;;;;;12.13;11.40;;;;;;;;;;5014306;28;20044;-51
2023/04/02 04:29:45;;;;;;;12.68;11.88;;;;;;;;;;5015036;28;20038;-50
2023/04/02 04:32:26;;;;;;;12.68;11.88;;;;;;;;;;5022275;28;20033;-47
2023/04/02 04:34:57;;;;;;;13.45;12.55;;;;;;;;;;5013932;28;20041;-48
2023/04/02 04:37:32;;;;;;;13.35;12.45;;;;;;;;;;5020863;28;20038;-48
2023/04/02 04:40:05;;;;;;;13.60;12.70;;;;;;;;;;5013844;28;20048;-51
2023/04/02 04:42:33;;;;;;;13.38;12.57;;;;;;;;;;5014484;28;20033;-48
2023/04/02 04:45:29;;;;;;;11.90;11.20;;;;;;;;;;5011916;28;20033;-49
2023/04/02 04:48:08;;;;;;;11.75;11.05;;;;;;;;;;5014935;28;20483;-51
2023/04/02 04:50:45;;;;;;;11.85;11.15;;;;;;;;;;5013563;28;20049;-47
2023/04/02 04:53:22;;;;;;;12.27;11.57;;;;;;;;;;5014136;28;20056;-50
2023/04/02 04:55:51;;;;;;;12.90;12.02;;;;;;;;;;5014064;28;20778;-52
2023/04/02 04:58:42;;;;;;;12.90;12.10;;;;;;;;;;5015828;28;20113;-49
2023/04/02 05:01:26;;;;;;;13.25;12.32;;;;;;;;;;5020039;28;20132;-51
2023/04/02 05:04:30;;;;;;;11.88;11.18;;;;;;;;;;5012465;28;20606;-47
2023/04/02 05:07:28;;;;;;;13.00;12.20;;;;;;;;;;5005614;28;20442;-51
2023/04/02 05:10:06;;;;;;;13.88;12.98;;;;;;;;;;5022445;28;20034;-48
2023/04/02 05:12:49;;;;;;;13.60;12.68;;;;;;;;;;5013231;28;20529;-47
2023/04/02 05:15:25;;;;;;;12.10;11.38;;;;;;;;;;5013020;28;20045;-50
2023/04/02 05:18:17;;;;;;;13.00;12.20;;;;;;;;;;5013854;28;20030;-47
2023/04/02 05:20:49;;;;;;;12.57;11.77;;;;;;;;;;5006126;28;20049;-49
2023/04/02 05:23:27;;;;;;;13.20;12.40;;;;;;;;;;5015220;28;20040;-47
2023/04/02 05:26:20;;;;;;;11.90;11.20;;;;;;;;;;5014529;28;20064;-48
2023/04/02 05:28:56;;;;;;;12.07;11.38;;;;;;;;;;5016503;28;20455;-48
2023/04/02 05:31:28;;;;;;;12.85;12.00;;;;;;;;;;5012903;28;20057;-50
2023/04/02 05:33:54;;;;;;;12.40;11.70;;;;;;;;;;5012925;28;20502;-46
2023/04/02 05:36:23;;;;;;;12.50;11.75;;;;;;;;;;5007868;28;20037;-49
2023/04/02 05:38:50;;;;;;;12.30;11.60;;;;;;;;;;5012030;28;20498;-51
2023/04/02 05:41:30;;;;;;;12.82;12.02;;;;;;;;;;5010928;28;20053;-49
2023/04/02 05:44:06;;;;;;;13.43;12.63;;;;;;;;;;5011573;28;20417;-49
2023/04/02 05:46:36;;;;;;;12.43;11.73;;;;;;;;;;5014315;28;20041;-51
2023/04/02 05:49:05;;;;;;;12.25;11.50;;;;;;;;;;5014144;28;20041;-50
2023/04/02 05:51:44;;;;;;;12.18;11.43;;;;;;;;;;5010967;28;20034;-51
2023/04/02 05:54:26;;;;;;;12.82;12.02;;;;;;;;;;5009897;28;20046;-49
2023/04/02 05:56:56;;;;;;;12.55;11.77;;;;;;;;;;5013143;28;20435;-52
2023/04/02 05:59:27;;;;;;;12.00;11.23;;;;;;;;;;5015776;28;20033;-49
2023/04/02 06:02:05;;;;;;;11.90;11.18;;;;;;;;;;5013933;28;20625;-49
2023/04/02 06:04:48;;;;;;;12.77;11.98;;;;;;;;;;5011594;28;20147;-52
2023/04/02 06:07:20;;;;;;;11.68;10.98;;;;;;;;;;5013087;28;20056;-49
2023/04/02 06:09:55;;;;;;;11.80;11.10;;;;;;;;;;5016166;28;20830;-48
2023/04/02 06:12:38;;;;;;;11.65;10.95;;;;;;;;;;5016528;28;20025;-51
2023/04/02 06:15:05;;;;;;;12.80;11.98;;;;;;;;;;5013918;28;20021;-50
2023/04/02 06:17:41;;;;;;;11.70;11.00;;;;;;;;;;5016397;28;20116;-50
2023/04/02 06:20:14;;;;;;;12.05;11.35;;;;;;;;;;5013447;28;20025;-51
2023/04/02 06:22:43;;;;;;;13.18;12.38;;;;;;;;;;5014902;28;20126;-48
2023/04/02 06:25:22;;;;;;;11.55;10.85;;;;;;;;;;5014136;28;20053;-50
2023/04/02 06:27:50;;;;;;;11.52;10.82;;;;;;;;;;5012128;28;20053;-50
2023/04/02 06:30:20;;;;;;;12.05;11.25;;;;;;;;;;5012493;28;20453;-51
2023/04/02 06:32:45;;;;;;;12.15;11.45;;;;;;;;;;5013468;28;20495;-48
2023/04/02 06:35:14;;;;;;;11.30;10.60;;;;;;;;;;5010864;28;20072;-51
2023/04/02 06:37:44;;;;;;;11.98;11.27;;;;;;;;;;5010031;28;20045;-53
2023/04/02 06:40:32;;;;;;;11.85;11.05;;;;;;;;;;5011875;28;20514;-50
2023/04/02 06:43:04;;;;;;;12.02;11.15;;;;;;;;;;5014764;28;20037;-48
2023/04/02 06:45:37;;;;;;;11.23;10.52;;;;;;;;;;5011675;28;20566;-50
2023/04/02 06:48:03;;;;;;;11.32;10.63;;;;;;;;;;5012397;28;20065;-47
2023/04/02 06:50:40;;;;;;;12.02;11.23;;;;;;;;;;5012749;28;20631;-47
2023/04/02 06:53:08;;;;;;;11.18;10.48;;;;;;;;;;5015219;28;20124;-52
2023/04/02 06:55:49;;;;;;;11.13;10.43;;;;;;;;;;5012881;28;20037;-51
2023/04/02 06:58:15;;;;;;;11.43;10.73;;;;;;;;;;5013336;28;20034;-49
2023/04/02 07:00:44;;;;;;;11.73;10.93;;;;;;;;;;5012260;28;20086;-51
2023/04/02 07:03:19;;;;;;;10.70;10.05;;;;;;;;;;5013608;28;20065;-49
2023/04/02 07:05:44;;;;;;;12.45;11.50;;;;;;;;;;5013735;28;20073;-50
2023/04/02 07:08:10;;;;;;;10.07;9.48;;;;;;;;;;5015944;28;20058;-49
2023/04/02 07:10:35;;;;;;;11.50;10.60;;;;;;;;;;5014018;28;20037;-51
2023/04/02 07:13:01;;;;;;;11.32;10.63;;;;;;;;;;5016956;28;20719;-45
2023/04/02 07:15:27;;;;;;;9.95;9.35;;;;;;;;;;5014406;28;20034;-46
2023/04/02 07:17:56;;;;;;;9.75;9.15;;;;;;;;;;5018290;28;20121;-47
2023/04/02 07:20:33;;;;;;;10.45;9.85;;;;;;;;;;5013761;28;20029;-50
2023/04/02 07:22:58;;;;;;;11.02;10.32;;;;;;;;;;5015773;28;20030;-48
2023/04/02 07:25:25;;;;;;;10.88;10.18;;;;;;;;;;5014866;28;20091;-49
2023/04/02 07:27:52;;;;;;;10.55;9.95;;;;;;;;;;5015960;28;20103;-47
2023/04/02 07:30:18;;;;;;;10.85;10.18;;;;;;;;;;5014518;28;20037;-50
2023/04/02 07:32:44;;;;;;;11.75;11.05;;;;;;;;;;5013593;28;20033;-48
2023/04/02 07:35:10;;;;;;;12.43;11.73;;;;;;;;;;5013771;28;20057;-48
2023/04/02 07:37:37;;;;;;;12.70;11.98;;;;;;;;;;5017247;28;20044;-48
2023/04/02 07:40:10;;;;;;;13.13;12.35;;;;;;;;;;5015113;28;20601;-49
2023/04/02 07:42:36;;;;;;;13.07;12.30;;;;;;;;;;5015196;28;20041;-47
2023/04/02 07:45:01;;;;;;;12.73;12.02;;;;;;;;;;5016404;28;20040;-48
2023/04/02 07:47:27;;;;;;;13.00;12.25;;;;;;;;;;5015702;28;20028;-50
2023/04/02 07:49:53;;;;;;;13.25;12.45;;;;;;;;;;5015995;28;20033;-48
2023/04/02 07:52:20;;;;;;;12.63;11.93;;;;;;;;;;5016271;28;20109;-49
2023/04/02 07:54:45;;;;;;;13.23;12.43;;;;;;;;;;5013831;28;20045;-54
2023/04/02 07:57:11;;;;;;;12.43;11.73;;;;;;;;;;5012499;28;20037;-50
2023/04/02 07:59:36;;;;;;;11.27;10.57;;;;;;;;;;5016656;28;20034;-51
2023/04/02 08:02:01;;;;;;;11.65;10.95;;;;;;;;;;5017829;28;20044;-48
2023/04/02 08:04:27;;;;;;;11.95;11.25;;;;;;;;;;5014090;28;20125;-50
2023/04/02 08:06:52;;;;;;;11.00;10.32;;;;;;;;;;5015492;28;20037;-50
2023/04/02 08:09:18;;;;;;;10.57;9.88;;;;;;;;;;5013259;28;20380;-49
2023/04/02 08:11:45;;;;;;;10.30;9.70;;;;;;;;;;5012641;28;20533;-48
2023/04/02 08:14:10;;;;;;;10.50;9.85;;;;;;;;;;5002693;28;20315;-50
2023/04/02 08:16:50;;;;;;;11.73;11.02;;;;;;;;;;5016092;28;20060;-50
2023/04/02 08:19:16;;;;;;;12.25;11.45;;;;;;;;;;5014925;28;20053;-49
2023/04/02 08:21:42;;;;;;;11.30;10.60;;;;;;;;;;5015445;28;20044;-49
2023/04/02 08:24:07;;;;;;;10.65;10.02;;;;;;;;;;5015194;28;20037;-50
2023/04/02 08:26:33;;;;;;;11.15;10.45;;;;;;;;;;5014736;28;20058;-48
2023/04/02 08:28:58;;;;;;;13.98;9.93;;;;;;;;;;5014597;28;20041;-48
2023/04/02 08:31:23;;;;;;;9.57;8.98;;;;;;;;;;5014196;28;20041;-51
2023/04/02 08:33:49;;;;;;;10.60;10.00;;;;;;;;;;5013979;28;20033;-51
2023/04/02 08:36:16;;;;;;;11.43;10.73;;;;;;;;;;5015372;28;20131;-47
2023/04/02 08:38:41;;;;;;;11.73;11.02;;;;;;;;;;5012769;28;20041;-50
2023/04/02 08:41:12;;;;;;;10.85;10.15;;;;;;;;;;5013686;28;20138;-48
2023/04/02 08:43:39;;;;;;;10.63;10.02;;;;;;;;;;5015131;28;20229;-48
2023/04/02 08:46:20;;;;;;;11.48;10.77;;;;;;;;;;5009472;28;20101;-50
2023/04/02 08:48:54;;;;;;;10.48;9.80;;;;;;;;;;5015607;28;20069;-48
2023/04/02 08:51:29;;;;;;;10.55;9.95;;;;;;;;;;5012202;28;20042;-47
2023/04/02 08:54:01;;;;;;;9.75;9.15;;;;;;;;;;5013275;28;20038;-47
2023/04/02 08:56:39;;;;;;;10.20;9.60;;;;;;;;;;5013694;28;20057;-53
2023/04/02 08:59:37;;;;;;;10.60;10.00;;;;;;;;;;5014663;28;20055;-50
2023/04/02 09:02:33;;;;;;;9.98;9.38;;;;;;;;;;5017845;28;20064;-50
2023/04/02 09:05:02;;;;;;;9.85;9.25;;;;;;;;;;5015525;28;20041;-49
2023/04/02 09:07:28;;;;;;;10.07;9.48;;;;;;;;;;5014905;28;20037;-51
2023/04/02 09:09:53;;;;;;;9.38;8.77;;;;;;;;;;5011287;28;20041;-51
2023/04/02 09:12:24;;;;;;;9.52;8.93;;;;;;;;;;5014186;28;20115;-50
2023/04/02 09:15:10;;;;;;;10.45;9.85;;;;;;;;;;5015303;28;20034;-49
2023/04/02 09:17:37;;;;;;;10.15;9.55;;;;;;;;;;5014503;28;20144;-56
2023/04/02 09:20:23;;;;;;;9.70;9.10;;;;;;;;;;5003559;28;20033;-57
2023/04/02 09:22:50;;;;;;;9.50;8.90;;;;;;;;;;5010612;28;20030;-56
2023/04/02 09:25:25;;;;;;;10.10;9.50;;;;;;;;;;5010070;28;20499;-56
2023/04/02 09:27:53;;;;;;;9.70;9.10;;;;;;;;;;5014810;28;20165;-56
2023/04/02 09:30:30;;;;;;;9.13;8.52;;;;;;;;;;5012899;28;20069;-55
2023/04/02 09:33:02;;;;;;;11.40;10.70;;;;;;;;;;5012940;28;20616;-54
2023/04/02 09:35:31;;;;;;;10.23;9.63;;;;;;;;;;5013614;28;20042;-53
2023/04/02 09:38:21;;;;;;;9.60;9.00;;;;;;;;;;5014109;28;20022;-53
2023/04/02 09:41:17;;;;;;;9.43;8.82;;;;;;;;;;5012074;28;21002;-53
2023/04/02 09:43:42;;;;;;;9.57;8.98;;;;;;;;;;5012855;28;20034;-53
2023/04/02 09:46:14;;;;;;;11.55;10.85;;;;;;;;;;5012985;28;20103;-52
2023/04/02 09:48:40;;;;;;;12.45;11.75;;;;;;;;;;5012814;28;20049;-52
2023/04/02 09:51:14;;;;;;;10.25;9.65;;;;;;;;;;5014712;28;20061;-54
2023/04/02 09:53:46;;;;;;;10.13;9.52;;;;;;;;;;5010298;28;20099;-56
2023/04/02 09:56:15;;;;;;;9.48;8.88;;;;;;;;;;5015292;28;20033;-52
2023/04/02 09:58:43;;;;;;;9.80;9.20;;;;;;;;;;5012393;28;20435;-50
2023/04/02 10:01:26;;;;;;;9.55;8.95;;;;;;;;;;5009509;28;20381;-50
2023/04/02 10:03:51;;;;;;;9.95;9.35;;;;;;;;;;5012914;28;20040;-51
2023/04/02 10:06:17;;;;;;;9.10;8.50;;;;;;;;;;5008525;28;20052;-50
2023/04/02 10:08:43;;;;;;;10.60;9.98;;;;;;;;;;5009848;28;20360;-55
2023/04/02 10:11:14;;;;;;;10.10;9.50;;;;;;;;;;5015955;28;20041;-56
2023/04/02 10:14:00;;;;;;;9.50;8.90;;;;;;;;;;5013860;28;20101;-53
2023/04/02 10:16:37;;;;;;;10.27;9.68;;;;;;;;;;5014834;28;20049;-51
2023/04/02 10:19:36;;;;;;;9.77;9.18;;;;;;;;;;5013738;28;20709;-54
2023/04/02 10:22:14;;;;;;;10.00;9.40;;;;;;;;;;5003559;28;20060;-53
2023/04/02 10:24:40;;;;;;;10.88;10.18;;;;;;;;;;5010996;28;20120;-50
2023/04/02 10:27:38;;;;;;;9.57;8.98;;;;;;;;;;5007908;28;20491;-54
2023/04/02 10:30:07;;;;;;;10.10;9.50;;;;;;;;;;5008319;28;20045;-54
2023/04/02 10:32:48;;;;;;;9.70;9.10;;;;;;;;;;5009517;28;20029;-56
2023/04/02 10:35:26;;;;;;;10.90;10.20;;;;;;;;;;5018893;28;20029;-55
2023/04/02 10:38:02;;;;;;;9.25;8.65;;;;;;;;;;5017611;28;20367;-54
2023/04/02 10:40:38;;;;;;;9.60;9.00;;;;;;;;;;5013640;28;20109;-55
2023/04/02 10:43:12;;;;;;;9.95;9.30;;;;;;;;;;5018943;28;20627;-54
2023/04/02 10:45:51;;;;;;;9.50;8.90;;;;;;;;;;5018738;28;20038;-55
2023/04/02 10:48:45;;;;;;;10.77;10.07;;;;;;;;;;5023522;28;20033;-55
2023/04/02 10:51:32;;;;;;;9.68;9.05;;;;;;;;;;5013364;28;20061;-55
2023/04/02 10:54:20;;;;;;;9.85;9.25;;;;;;;;;;5016385;28;20083;-55
2023/04/02 10:56:46;;;;;;;11.18;10.48;;;;;;;;;;5015258;28;20443;-55
2023/04/02 10:59:20;;;;;;;10.15;9.55;;;;;;;;;;5012301;28;20111;-56
2023/04/02 11:01:47;;;;;;;10.63;9.77;;;;;;;;;;5012569;28;20041;-51
2023/04/02 11:04:39;;;;;;;9.27;8.68;;;;;;;;;;5015886;28;20403;-54
2023/04/02 11:07:16;;;;;;;9.60;9.00;;;;;;;;;;5014990;28;20046;-53
2023/04/02 11:09:45;;;;;;;10.50;9.88;;;;;;;;;;5016069;28;20045;-53
2023/04/02 11:12:38;;;;;;;10.40;9.80;;;;;;;;;;5014660;28;20034;-51
2023/04/02 11:15:14;;;;;;;10.13;9.48;;;;;;;;;;5016522;28;20041;-55
2023/04/02 11:17:42;;;;;;;10.70;10.10;;;;;;;;;;5013546;28;20129;-58
2023/04/02 11:20:42;;;;;;;9.52;8.93;;;;;;;;;;5017187;28;20042;-53
2023/04/02 11:23:10;;;;;;;9.32;8.73;;;;;;;;;;5030999;28;20367;-55
2023/04/02 11:25:36;;;;;;;10.80;10.10;;;;;;;;;;5017742;28;20052;-55
2023/04/02 11:28:28;;;;;;;11.43;10.73;;;;;;;;;;5015774;28;20371;-55
2023/04/02 11:30:54;;;;;;;9.65;9.05;;;;;;;;;;5014569;28;20045;-54
2023/04/02 11:33:40;;;;;;;10.52;9.93;;;;;;;;;;5012120;28;20141;-56
2023/04/02 11:36:43;;;;;;;9.38;8.77;;;;;;;;;;5011974;28;20210;-56
2023/04/02 11:39:10;;;;;;;9.32;8.73;;;;;;;;;;5017397;28;20051;-54
2023/04/02 11:42:17;;;;;;;9.82;9.23;;;;;;;;;;5012819;28;20115;-55
2023/04/02 11:44:42;;;;;;;9.50;8.90;;;;;;;;;;5016090;28;20049;-55
2023/04/02 11:47:37;;;;;;;9.15;8.55;;;;;;;;;;5015119;28;20030;-55
2023/04/02 11:50:03;;;;;;;9.18;8.57;;;;;;;;;;5007896;28;20037;-57
2023/04/02 11:52:49;;;;;;;9.07;8.48;;;;;;;;;;5012755;28;20664;-56
2023/04/02 11:55:34;;;;;;;10.07;9.48;;;;;;;;;;5018398;28;20549;-56
2023/04/02 11:58:19;;;;;;;9.63;9.02;;;;;;;;;;5015527;28;20109;-59
2023/04/02 12:00:48;;;;;;;9.50;8.90;;;;;;;;;;5009339;28;20029;-60
2023/04/02 12:03:28;;;;;;;9.35;8.75;;;;;;;;;;5016927;28;20040;-59
2023/04/02 12:06:30;;;;;;;10.43;9.82;;;;;;;;;;5015930;28;20370;-58
2023/04/02 12:09:33;;;;;;;9.07;8.48;;;;;;;;;;5014937;28;20037;-57
2023/04/02 12:12:14;;;;;;;11.20;10.50;;;;;;;;;;5016839;28;20021;-48
2023/04/02 12:14:47;;;;;;;10.35;9.75;;;;;;;;;;5016222;28;20033;-50
2023/04/02 12:17:29;;;;;;;11.20;10.50;;;;;;;;;;5012419;28;20041;-49
2023/04/02 12:19:58;;;;;;;9.82;9.23;;;;;;;;;;5015554;28;20026;-49
2023/04/02 12:22:30;;;;;;;9.70;9.10;;;;;;;;;;5016228;28;20121;-48
2023/04/02 12:25:02;;;;;;;9.57;8.98;;;;;;;;;;5015065;28;20245;-48
2023/04/02 12:27:28;;;;;;;9.93;9.32;;;;;;;;;;5016814;28;20034;-50
2023/04/02 12:29:56;;;;;;;9.15;8.55;;;;;;;;;;5013840;28;20211;-53
2023/04/02 12:32:29;;;;;;;9.52;8.93;;;;;;;;;;5011778;28;20032;-52
2023/04/02 12:34:56;;;;;;;9.32;8.73;;;;;;;;;;5014439;28;20116;-52
2023/04/02 12:37:25;;;;;;;9.80;9.15;;;;;;;;;;5014719;28;20464;-49
2023/04/02 12:40:01;;;;;;;9.35;8.75;;;;;;;;;;5011466;28;20030;-52
2023/04/02 12:42:30;;;;;;;9.25;8.65;;;;;;;;;;5013092;28;20057;-51
2023/04/02 12:44:55;;;;;;;9.43;8.82;;;;;;;;;;5013569;28;20038;-49
2023/04/02 12:47:21;;;;;;;10.02;9.43;;;;;;;;;;5011161;28;20624;-49
2023/04/02 12:49:47;;;;;;;10.93;10.23;;;;;;;;;;5012902;28;20118;-53
2023/04/02 12:52:19;;;;;;;9.30;8.70;;;;;;;;;;5009023;28;20787;-50
2023/04/02 12:54:52;;;;;;;10.13;9.52;;;;;;;;;;5014219;28;20035;-53
2023/04/02 12:57:27;;;;;;;10.05;9.45;;;;;;;;;;5014065;28;20033;-51
2023/04/02 12:59:56;;;;;;;9.70;9.10;;;;;;;;;;5012984;28;20106;-51
2023/04/02 13:02:25;;;;;;;9.38;8.77;;;;;;;;;;5014048;28;20040;-49
2023/04/02 13:05:00;;;;;;;9.63;9.02;;;;;;;;;;5013854;28;20029;-50
2023/04/02 13:07:28;;;;;;;9.90;9.30;;;;;;;;;;5014290;28;20075;-50
2023/04/02 13:09:57;;;;;;;9.80;9.20;;;;;;;;;;5014668;28;20144;-50
2023/04/02 13:12:37;;;;;;;9.88;9.27;;;;;;;;;;5012148;28;20037;-50
2023/04/02 13:15:05;;;;;;;10.35;9.75;;;;;;;;;;5010515;28;20060;-48
2023/04/02 13:17:46;;;;;;;10.90;10.20;;;;;;;;;;5015467;28;20180;-51
2023/04/02 13:20:31;;;;;;;11.07;10.38;;;;;;;;;;5012053;28;20034;-49
2023/04/02 13:22:59;;;;;;;10.02;9.43;;;;;;;;;;5010438;28;20108;-49
2023/04/02 13:25:35;;;;;;;10.57;9.98;;;;;;;;;;5013139;28;20049;-49
2023/04/02 13:28:00;;;;;;;10.05;9.23;;;;;;;;;;5008230;28;20036;-49
2023/04/02 13:30:27;;;;;;;9.23;8.63;;;;;;;;;;5014611;28;20040;-49
2023/04/02 13:32:53;;;;;;;9.98;9.38;;;;;;;;;;5012054;28;20034;-52
2023/04/02 13:35:20;;;;;;;10.60;9.90;;;;;;;;;;5016104;28;20048;-50
2023/04/02 13:37:45;;;;;;;9.75;9.15;;;;;;;;;;5011188;28;20476;-52
2023/04/02 13:40:16;;;;;;;9.43;8.82;;;;;;;;;;5014958;28;20609;-50
2023/04/02 13:42:42;;;;;;;10.10;9.50;;;;;;;;;;5012808;28;20041;-49
2023/04/02 13:45:37;;;;;;;9.25;8.65;;;;;;;;;;5015199;28;20041;-48
2023/04/02 13:48:04;;;;;;;10.38;9.68;;;;;;;;;;5010562;28;20061;-51
2023/04/02 13:50:32;;;;;;;9.82;9.23;;;;;;;;;;5011396;28;20468;-52
2023/04/02 13:53:03;;;;;;;9.30;8.70;;;;;;;;;;5013529;28;20616;-50
2023/04/02 13:55:33;;;;;;;10.40;9.70;;;;;;;;;;5009814;28;20042;-50
2023/04/02 13:57:59;;;;;;;9.55;8.85;;;;;;;;;;5014532;28;20341;-53
2023/04/02 14:00:25;;;;;;;9.93;9.23;;;;;;;;;;5012520;28;20044;-48
2023/04/02 14:03:04;;;;;;;8.95;8.35;;;;;;;;;;5011283;28;20029;-51
2023/04/02 14:05:57;;;;;;;9.00;8.40;;;;;;;;;;5015026;28;20041;-52
2023/04/02 14:08:49;;;;;;;9.07;8.48;;;;;;;;;;5014944;28;20116;-52
2023/04/02 14:11:27;;;;;;;9.57;8.98;;;;;;;;;;5012827;28;20085;-53
2023/04/02 14:13:58;;;;;;;9.30;8.70;;;;;;;;;;5010862;28;20041;-51
2023/04/02 14:16:52;;;;;;;10.05;9.45;;;;;;;;;;5012318;28;20033;-58
2023/04/02 14:19:36;;;;;;;8.80;8.20;;;;;;;;;;5015599;28;20037;-59
2023/04/02 14:22:16;;;;;;;9.63;9.02;;;;;;;;;;5028195;28;20657;-59
2023/04/02 14:25:18;;;;;;;9.60;9.00;;;;;;;;;;5011266;28;20042;-59
2023/04/02 14:28:08;;;;;;;8.82;8.23;;;;;;;;;;5010553;28;20391;-59
2023/04/02 14:30:33;;;;;;;9.10;8.50;;;;;;;;;;5013960;28;20044;-58
2023/04/02 14:33:05;;;;;;;8.82;8.23;;;;;;;;;;5011228;28;20908;-58
2023/04/02 14:35:42;;;;;;;9.00;8.40;;;;;;;;;;5013973;28;20125;-59
2023/04/02 14:38:36;;;;;;;9.65;9.05;;;;;;;;;;5012585;28;20041;-59
2023/04/02 14:41:09;;;;;;;9.63;9.02;;;;;;;;;;5010383;28;20046;-58
2023/04/02 14:43:53;;;;;;;10.63;9.93;;;;;;;;;;5011039;28;20038;-59
2023/04/02 14:46:23;;;;;;;9.00;8.40;;;;;;;;;;5009635;28;20448;-58
2023/04/02 14:49:21;;;;;;;9.85;9.25;;;;;;;;;;5011644;28;20616;-57
2023/04/02 14:51:51;;;;;;;9.57;8.98;;;;;;;;;;5014087;28;20038;-57
2023/04/02 14:54:34;;;;;;;9.35;8.75;;;;;;;;;;5013291;28;20045;-59
2023/04/02 14:57:02;;;;;;;9.82;9.13;;;;;;;;;;5014116;28;20512;-51
2023/04/02 14:59:34;;;;;;;9.52;8.82;;;;;;;;;;5017454;28;20076;-50
2023/04/02 15:02:11;;;;;;;9.18;8.57;;;;;;;;;;5007963;28;20100;-48
2023/04/02 15:04:44;;;;;;;9.45;8.85;;;;;;;;;;5012652;28;20044;-50
2023/04/02 15:07:18;;;;;;;10.63;9.68;;;;;;;;;;5014546;28;20033;-47
2023/04/02 15:09:49;;;;;;;9.80;9.20;;;;;;;;;;5009957;28;20119;-49